Time;durP1;ratioP1;P1;durP2;ratioP2;P2;SDS_P1;SDS_P2;PMS_P1;PMS_P2;Temp;Humidity;BMP_temperature;BMP_pressure;BME280_temperature;BME280_humidity;BME280_pressure;Samples;Min_cycle;Max_cycle;Signal;HPM_P1;HPM_P2
2022/11/27 00:01:59;;;;;;;24.60;16.77;;;;;;;;;;5032429;28;20502;-75
2022/11/27 00:04:49;;;;;;;29.67;17.73;;;;;;;;;;5033556;28;20455;-76
2022/11/27 00:07:38;;;;;;;22.20;16.50;;;;;;;;;;5033926;28;20862;-75
2022/11/27 00:10:29;;;;;;;24.10;16.00;;;;;;;;;;5035757;28;20456;-75
2022/11/27 00:13:25;;;;;;;25.67;16.67;;;;;;;;;;5030791;28;20573;-74
2022/11/27 00:16:15;;;;;;;27.47;16.57;;;;;;;;;;5035264;28;20451;-74
2022/11/27 00:19:06;;;;;;;22.53;16.17;;;;;;;;;;5030342;28;20467;-75
2022/11/27 00:21:55;;;;;;;21.30;14.93;;;;;;;;;;5028954;28;20476;-75
2022/11/27 00:24:47;;;;;;;23.40;15.90;;;;;;;;;;5029061;28;20471;-74
2022/11/27 00:27:38;;;;;;;21.93;15.30;;;;;;;;;;5027225;28;20894;-76
2022/11/27 00:30:26;;;;;;;24.00;15.10;;;;;;;;;;5032406;28;20467;-75
2022/11/27 00:33:18;;;;;;;18.70;14.30;;;;;;;;;;5027434;28;20476;-74
2022/11/27 00:36:09;;;;;;;20.53;14.23;;;;;;;;;;5031106;28;20456;-74
2022/11/27 00:39:00;;;;;;;26.03;15.20;;;;;;;;;;5030347;28;20826;-74
2022/11/27 00:41:49;;;;;;;20.77;14.73;;;;;;;;;;5030096;28;20495;-74
2022/11/27 00:44:45;;;;;;;23.10;15.80;;;;;;;;;;5022970;28;20553;-75
2022/11/27 00:47:35;;;;;;;19.87;13.90;;;;;;;;;;5032303;28;21002;-74
2022/11/27 00:50:25;;;;;;;21.50;14.60;;;;;;;;;;5036132;28;20821;-74
2022/11/27 00:53:23;;;;;;;20.90;13.77;;;;;;;;;;5036761;28;20484;-76
2022/11/27 00:56:18;;;;;;;20.97;14.00;;;;;;;;;;5035813;28;20463;-74
2022/11/27 00:59:08;;;;;;;28.87;16.00;;;;;;;;;;5040979;28;20574;-75
2022/11/27 01:02:01;;;;;;;21.90;13.63;;;;;;;;;;5038916;28;20472;-74
2022/11/27 01:04:53;;;;;;;20.57;13.33;;;;;;;;;;5037478;28;20489;-74
2022/11/27 01:07:46;;;;;;;19.13;13.57;;;;;;;;;;5032743;28;20498;-73
2022/11/27 01:10:38;;;;;;;14.53;12.10;;;;;;;;;;5037542;28;20628;-75
2022/11/27 01:13:27;;;;;;;20.00;13.80;;;;;;;;;;5036839;28;20471;-75
2022/11/27 01:16:19;;;;;;;20.00;12.90;;;;;;;;;;5037399;28;20471;-76
2022/11/27 01:19:11;;;;;;;20.43;12.80;;;;;;;;;;5034564;28;20443;-74
2022/11/27 01:22:01;;;;;;;18.50;12.90;;;;;;;;;;5033224;28;20471;-74
2022/11/27 01:24:53;;;;;;;19.30;12.90;;;;;;;;;;5024897;28;20459;-75
2022/11/27 01:27:43;;;;;;;16.97;12.63;;;;;;;;;;5022435;28;20479;-74
2022/11/27 01:30:39;;;;;;;19.80;13.40;;;;;;;;;;5023799;28;21118;-74
2022/11/27 01:33:27;;;;;;;22.70;13.23;;;;;;;;;;5021364;28;23126;-74
2022/11/27 01:36:25;;;;;;;19.60;12.77;;;;;;;;;;5019676;28;20459;-74
2022/11/27 01:39:22;;;;;;;16.67;11.53;;;;;;;;;;5026174;28;20456;-75
2022/11/27 01:42:12;;;;;;;19.30;12.87;;;;;;;;;;5022481;28;20862;-75
2022/11/27 01:45:02;;;;;;;15.03;11.40;;;;;;;;;;5023052;28;20447;-74
2022/11/27 01:47:57;;;;;;;19.47;11.83;;;;;;;;;;5030608;28;21047;-74
2022/11/27 01:50:46;;;;;;;19.93;12.93;;;;;;;;;;5030243;28;20493;-76
2022/11/27 01:53:37;;;;;;;13.50;11.03;;;;;;;;;;5025396;28;20467;-74
2022/11/27 01:56:27;;;;;;;17.30;12.10;;;;;;;;;;5048314;28;20493;-75
2022/11/27 01:59:17;;;;;;;13.07;10.53;;;;;;;;;;5051508;28;20447;-72
2022/11/27 02:02:07;;;;;;;14.30;11.30;;;;;;;;;;5036491;28;20479;-75
2022/11/27 02:04:55;;;;;;;15.70;10.80;;;;;;;;;;5028002;28;20459;-76
2022/11/27 02:07:48;;;;;;;14.13;11.27;;;;;;;;;;5033242;28;20480;-74
2022/11/27 02:10:45;;;;;;;15.87;10.77;;;;;;;;;;5027157;28;21003;-74
2022/11/27 02:13:39;;;;;;;16.83;11.07;;;;;;;;;;5032053;28;20476;-75
2022/11/27 02:16:36;;;;;;;14.90;10.77;;;;;;;;;;5030006;28;20554;-73
2022/11/27 02:19:37;;;;;;;18.43;11.23;;;;;;;;;;5029956;28;20440;-75
2022/11/27 02:22:42;;;;;;;22.43;11.57;;;;;;;;;;5026733;28;20951;-74
2022/11/27 02:25:41;;;;;;;15.97;10.67;;;;;;;;;;5030946;28;20452;-74
2022/11/27 02:28:39;;;;;;;14.43;10.17;;;;;;;;;;5026913;28;20493;-74
2022/11/27 02:31:35;;;;;;;19.30;10.97;;;;;;;;;;5032817;28;20887;-75
2022/11/27 02:34:27;;;;;;;16.80;10.40;;;;;;;;;;5027646;28;20451;-74
2022/11/27 02:37:23;;;;;;;18.43;10.90;;;;;;;;;;5022967;28;20455;-76
2022/11/27 02:40:17;;;;;;;16.03;10.97;;;;;;;;;;5032052;28;21141;-74
2022/11/27 02:43:13;;;;;;;17.13;11.47;;;;;;;;;;5033017;28;20525;-74
2022/11/27 02:46:05;;;;;;;15.70;10.60;;;;;;;;;;5035438;28;20541;-74
2022/11/27 02:48:57;;;;;;;14.87;10.90;;;;;;;;;;5038375;28;20491;-74
2022/11/27 02:51:48;;;;;;;16.70;10.70;;;;;;;;;;5035907;28;20495;-75
2022/11/27 02:54:39;;;;;;;15.90;10.73;;;;;;;;;;5041331;28;20470;-75
2022/11/27 02:57:28;;;;;;;15.53;11.43;;;;;;;;;;5040357;28;20452;-74
2022/11/27 03:00:29;;;;;;;16.87;10.57;;;;;;;;;;5042298;28;20458;-74
2022/11/27 03:03:19;;;;;;;16.70;10.03;;;;;;;;;;5040297;28;20861;-74
2022/11/27 03:06:10;;;;;;;15.50;10.60;;;;;;;;;;5030791;28;20471;-75
2022/11/27 03:09:06;;;;;;;16.93;10.43;;;;;;;;;;5036519;28;20475;-74
2022/11/27 03:11:55;;;;;;;16.10;10.43;;;;;;;;;;5035247;28;20490;-75
2022/11/27 03:14:49;;;;;;;14.93;9.50;;;;;;;;;;5039107;28;20463;-75
2022/11/27 03:17:49;;;;;;;13.27;9.73;;;;;;;;;;5040130;28;20458;-74
2022/11/27 03:20:40;;;;;;;15.27;10.27;;;;;;;;;;5032662;28;21442;-74
2022/11/27 03:23:33;;;;;;;16.13;10.10;;;;;;;;;;5030993;28;20475;-74
2022/11/27 03:26:27;;;;;;;16.13;11.13;;;;;;;;;;5036896;28;20463;-74
2022/11/27 03:29:22;;;;;;;14.50;11.40;;;;;;;;;;5031356;28;20443;-76
2022/11/27 03:32:12;;;;;;;15.57;10.13;;;;;;;;;;5031112;28;20474;-75
2022/11/27 03:35:04;;;;;;;16.23;10.83;;;;;;;;;;5034831;28;20606;-74
2022/11/27 03:37:53;;;;;;;13.50;9.83;;;;;;;;;;5028304;28;20448;-74
2022/11/27 03:40:50;;;;;;;13.70;10.47;;;;;;;;;;5033034;28;20826;-74
2022/11/27 03:43:47;;;;;;;15.07;10.80;;;;;;;;;;5034848;28;23600;-74
2022/11/27 03:46:43;;;;;;;13.30;10.80;;;;;;;;;;5037049;28;20443;-75
2022/11/27 03:49:44;;;;;;;15.80;11.03;;;;;;;;;;5035824;28;20474;-74
2022/11/27 03:52:39;;;;;;;16.80;10.43;;;;;;;;;;5030053;28;20483;-74
2022/11/27 03:55:37;;;;;;;15.97;10.60;;;;;;;;;;5034922;28;20541;-76
2022/11/27 03:58:33;;;;;;;18.03;11.00;;;;;;;;;;5036148;28;20450;-75
2022/11/27 04:01:29;;;;;;;16.73;11.03;;;;;;;;;;5036575;28;20483;-74
2022/11/27 04:04:19;;;;;;;15.77;11.53;;;;;;;;;;5036421;28;20493;-74
2022/11/27 04:07:08;;;;;;;15.83;11.10;;;;;;;;;;5026626;28;20494;-74
2022/11/27 04:10:01;;;;;;;19.60;10.97;;;;;;;;;;5034382;28;20899;-76
2022/11/27 04:12:50;;;;;;;15.30;10.93;;;;;;;;;;5035595;28;20475;-75
2022/11/27 04:15:44;;;;;;;18.70;10.80;;;;;;;;;;5033801;28;20475;-74
2022/11/27 04:18:32;;;;;;;16.50;11.97;;;;;;;;;;5028671;28;20872;-73
2022/11/27 04:21:23;;;;;;;14.40;11.13;;;;;;;;;;5035172;28;20479;-76
2022/11/27 04:24:15;;;;;;;15.90;12.83;;;;;;;;;;5033308;28;20459;-75
2022/11/27 04:27:06;;;;;;;15.73;11.43;;;;;;;;;;5033370;28;20451;-76
2022/11/27 04:29:54;;;;;;;16.27;11.27;;;;;;;;;;5036569;28;20477;-74
2022/11/27 04:32:46;;;;;;;16.87;11.73;;;;;;;;;;5035837;28;20966;-71
2022/11/27 04:35:36;;;;;;;20.27;12.23;;;;;;;;;;5033057;28;20462;-72
2022/11/27 04:38:27;;;;;;;16.50;13.37;;;;;;;;;;5032188;28;20479;-74
2022/11/27 04:41:17;;;;;;;16.50;12.87;;;;;;;;;;5035952;28;20482;-74
2022/11/27 04:44:09;;;;;;;20.00;13.87;;;;;;;;;;5030217;28;20473;-74
2022/11/27 04:47:03;;;;;;;19.97;13.33;;;;;;;;;;5033544;28;20463;-74
2022/11/27 04:49:53;;;;;;;24.60;14.00;;;;;;;;;;5027003;28;20470;-72
2022/11/27 04:52:41;;;;;;;18.07;14.17;;;;;;;;;;5034758;28;21029;-73
2022/11/27 04:55:32;;;;;;;17.57;13.63;;;;;;;;;;5031868;28;20462;-72
2022/11/27 04:58:23;;;;;;;19.47;13.20;;;;;;;;;;5035865;28;20462;-71
2022/11/27 05:01:16;;;;;;;18.80;13.97;;;;;;;;;;5038895;28;20486;-72
2022/11/27 05:04:07;;;;;;;16.80;13.80;;;;;;;;;;5035016;28;20571;-74
2022/11/27 05:07:08;;;;;;;20.83;13.23;;;;;;;;;;5036468;28;20850;-74
2022/11/27 05:09:56;;;;;;;21.97;14.60;;;;;;;;;;5037027;28;20476;-74
2022/11/27 05:12:47;;;;;;;19.97;13.80;;;;;;;;;;5036038;28;21017;-74
2022/11/27 05:15:39;;;;;;;18.70;13.67;;;;;;;;;;5034493;28;20459;-74
2022/11/27 05:18:41;;;;;;;24.00;13.93;;;;;;;;;;5036882;28;20476;-72
2022/11/27 05:21:30;;;;;;;22.23;13.67;;;;;;;;;;5022150;28;20469;-72
2022/11/27 05:24:24;;;;;;;21.57;14.90;;;;;;;;;;5030136;28;20443;-71
2022/11/27 05:27:17;;;;;;;23.50;14.17;;;;;;;;;;5029197;28;20462;-73
2022/11/27 05:30:21;;;;;;;20.13;15.17;;;;;;;;;;5022044;28;21101;-73
2022/11/27 05:33:19;;;;;;;20.20;15.30;;;;;;;;;;5035429;28;20484;-74
2022/11/27 05:36:08;;;;;;;19.90;14.83;;;;;;;;;;5028446;28;20451;-74
2022/11/27 05:38:56;;;;;;;21.33;15.40;;;;;;;;;;5027931;28;20986;-75
2022/11/27 05:41:52;;;;;;;22.83;15.20;;;;;;;;;;5034811;28;20480;-74
2022/11/27 05:44:41;;;;;;;21.60;15.10;;;;;;;;;;5024937;28;20505;-75
2022/11/27 05:47:31;;;;;;;20.80;15.27;;;;;;;;;;5027705;28;20632;-74
2022/11/27 05:50:24;;;;;;;22.23;15.27;;;;;;;;;;5027981;28;20454;-74
2022/11/27 05:53:13;;;;;;;22.87;16.40;;;;;;;;;;5036454;28;20488;-74
2022/11/27 05:56:07;;;;;;;20.87;15.90;;;;;;;;;;5032290;28;20451;-74
2022/11/27 05:58:59;;;;;;;28.20;17.00;;;;;;;;;;5032262;28;20456;-74
2022/11/27 06:01:48;;;;;;;24.73;15.83;;;;;;;;;;5032277;28;20477;-76
2022/11/27 06:04:40;;;;;;;22.63;17.13;;;;;;;;;;5029472;28;21062;-75
2022/11/27 06:07:32;;;;;;;24.43;17.43;;;;;;;;;;5031853;28;21081;-75
2022/11/27 06:10:21;;;;;;;24.87;17.50;;;;;;;;;;5028985;28;20619;-72
2022/11/27 06:13:12;;;;;;;23.67;15.80;;;;;;;;;;5045364;28;20503;-75
2022/11/27 06:16:10;;;;;;;25.97;16.87;;;;;;;;;;5052651;28;20460;-75
2022/11/27 06:19:00;;;;;;;26.97;16.13;;;;;;;;;;5048127;28;20455;-75
2022/11/27 06:21:49;;;;;;;23.10;15.87;;;;;;;;;;5028550;28;20599;-74
2022/11/27 06:24:42;;;;;;;22.60;15.50;;;;;;;;;;5030457;28;20468;-74
2022/11/27 06:27:36;;;;;;;20.27;15.93;;;;;;;;;;5030729;28;20597;-74
2022/11/27 06:30:26;;;;;;;23.17;15.83;;;;;;;;;;5031626;28;20526;-74
2022/11/27 06:33:16;;;;;;;23.93;16.23;;;;;;;;;;5032701;28;21013;-74
2022/11/27 06:36:14;;;;;;;20.77;14.50;;;;;;;;;;5034071;28;20451;-74
2022/11/27 06:39:05;;;;;;;19.93;14.30;;;;;;;;;;5030645;28;20450;-75
2022/11/27 06:41:53;;;;;;;21.53;14.37;;;;;;;;;;5024612;28;20477;-74
2022/11/27 06:44:47;;;;;;;19.60;14.53;;;;;;;;;;5030044;28;20835;-75
2022/11/27 06:47:38;;;;;;;19.97;15.10;;;;;;;;;;5031082;28;20452;-75
2022/11/27 06:50:30;;;;;;;21.37;15.10;;;;;;;;;;5030211;28;20463;-73
2022/11/27 06:53:22;;;;;;;18.27;13.80;;;;;;;;;;5034835;28;20467;-74
2022/11/27 06:56:13;;;;;;;21.80;15.80;;;;;;;;;;5031451;28;20541;-75
2022/11/27 06:59:06;;;;;;;22.13;15.50;;;;;;;;;;5033870;28;20432;-75
2022/11/27 07:02:00;;;;;;;18.40;13.80;;;;;;;;;;5034557;28;20473;-73
2022/11/27 07:04:48;;;;;;;19.30;14.73;;;;;;;;;;5029059;28;21068;-74
2022/11/27 07:07:38;;;;;;;20.30;15.03;;;;;;;;;;5025691;28;20463;-74
2022/11/27 07:10:36;;;;;;;20.30;14.13;;;;;;;;;;5033723;28;20546;-74
2022/11/27 07:13:24;;;;;;;19.93;14.43;;;;;;;;;;5020014;28;21818;-75
2022/11/27 07:16:16;;;;;;;18.30;14.13;;;;;;;;;;5019826;28;20467;-74
2022/11/27 07:19:06;;;;;;;22.07;14.80;;;;;;;;;;5033814;28;20894;-74
2022/11/27 07:21:59;;;;;;;21.60;15.00;;;;;;;;;;5034544;28;20482;-74
2022/11/27 07:24:50;;;;;;;22.00;15.90;;;;;;;;;;5029721;28;20451;-74
2022/11/27 07:27:41;;;;;;;18.73;13.40;;;;;;;;;;5030720;28;21001;-75
2022/11/27 07:30:29;;;;;;;18.53;13.80;;;;;;;;;;5027082;28;20475;-74
2022/11/27 07:33:19;;;;;;;20.17;14.20;;;;;;;;;;5030310;28;20475;-73
2022/11/27 07:36:11;;;;;;;17.17;13.67;;;;;;;;;;5017077;28;20454;-74
2022/11/27 07:39:01;;;;;;;19.80;13.83;;;;;;;;;;5027966;28;20446;-75
2022/11/27 07:41:57;;;;;;;17.93;13.67;;;;;;;;;;5025846;28;20552;-74
2022/11/27 07:44:56;;;;;;;19.63;13.90;;;;;;;;;;5032898;28;20469;-75
2022/11/27 07:47:51;;;;;;;20.17;13.70;;;;;;;;;;5034711;28;24535;-73
2022/11/27 07:50:40;;;;;;;18.40;14.37;;;;;;;;;;5032712;28;20463;-74
2022/11/27 07:53:30;;;;;;;21.70;13.40;;;;;;;;;;5031319;28;20579;-75
2022/11/27 07:56:19;;;;;;;20.53;13.47;;;;;;;;;;5036795;28;20448;-76
2022/11/27 07:59:09;;;;;;;19.70;13.70;;;;;;;;;;5036247;28;20455;-74
2022/11/27 08:01:57;;;;;;;18.20;13.07;;;;;;;;;;5029317;28;20474;-75
2022/11/27 08:04:46;;;;;;;19.10;14.00;;;;;;;;;;5018760;28;20526;-75
2022/11/27 08:07:35;;;;;;;19.13;14.50;;;;;;;;;;5020306;28;20454;-74
2022/11/27 08:10:24;;;;;;;18.60;13.17;;;;;;;;;;5019124;28;20479;-75
2022/11/27 08:13:15;;;;;;;22.17;14.57;;;;;;;;;;5007932;28;20822;-74
2022/11/27 08:16:05;;;;;;;18.77;12.90;;;;;;;;;;5019722;28;20840;-74
2022/11/27 08:18:54;;;;;;;16.73;13.00;;;;;;;;;;5030294;28;24298;-74
2022/11/27 08:21:43;;;;;;;21.57;12.50;;;;;;;;;;5023789;28;20479;-74
2022/11/27 08:24:32;;;;;;;20.50;13.63;;;;;;;;;;5031967;28;20539;-72
2022/11/27 08:27:23;;;;;;;18.40;12.77;;;;;;;;;;5021667;28;20452;-73
2022/11/27 08:30:12;;;;;;;17.60;12.10;;;;;;;;;;5024423;28;20490;-75
2022/11/27 08:33:05;;;;;;;21.13;12.50;;;;;;;;;;5020767;28;20731;-74
2022/11/27 08:35:54;;;;;;;18.33;12.57;;;;;;;;;;5023086;28;20469;-76
2022/11/27 08:38:43;;;;;;;17.20;11.90;;;;;;;;;;5030726;28;20466;-75
2022/11/27 08:41:31;;;;;;;17.30;12.87;;;;;;;;;;5031603;28;21015;-74
2022/11/27 08:44:20;;;;;;;16.10;11.57;;;;;;;;;;5019343;28;20465;-74
2022/11/27 08:47:08;;;;;;;19.83;11.47;;;;;;;;;;5026035;28;20460;-74
2022/11/27 08:49:58;;;;;;;16.57;11.67;;;;;;;;;;5038491;28;20471;-74
2022/11/27 08:52:47;;;;;;;17.30;11.23;;;;;;;;;;5031805;28;20482;-72
2022/11/27 08:55:36;;;;;;;18.80;11.10;;;;;;;;;;5038390;28;20536;-72
2022/11/27 08:58:24;;;;;;;16.37;10.93;;;;;;;;;;5034082;28;20460;-72
2022/11/27 09:01:15;;;;;;;14.50;10.70;;;;;;;;;;5039500;28;20469;-72
2022/11/27 09:04:04;;;;;;;16.43;10.97;;;;;;;;;;5033736;28;20986;-73
2022/11/27 09:06:54;;;;;;;13.63;10.70;;;;;;;;;;5038612;28;20462;-73
2022/11/27 09:09:48;;;;;;;16.27;10.70;;;;;;;;;;5036640;28;20867;-73
2022/11/27 09:12:37;;;;;;;16.80;11.40;;;;;;;;;;5032793;28;20494;-73
2022/11/27 09:15:30;;;;;;;18.27;11.57;;;;;;;;;;5033121;28;20462;-74
2022/11/27 09:18:19;;;;;;;17.47;11.87;;;;;;;;;;5039022;28;20464;-73
2022/11/27 09:21:09;;;;;;;15.83;11.17;;;;;;;;;;5033339;28;20475;-73
2022/11/27 09:23:59;;;;;;;15.77;10.70;;;;;;;;;;5035936;28;20486;-74
2022/11/27 09:26:48;;;;;;;15.07;10.80;;;;;;;;;;5039800;28;20469;-73
2022/11/27 09:29:39;;;;;;;14.67;11.33;;;;;;;;;;5037703;28;20455;-73
2022/11/27 09:32:28;;;;;;;14.43;10.27;;;;;;;;;;5034277;28;20478;-73
2022/11/27 09:35:16;;;;;;;17.23;10.27;;;;;;;;;;5037063;28;21288;-73
2022/11/27 09:38:05;;;;;;;16.43;10.43;;;;;;;;;;5039849;28;20461;-73
2022/11/27 09:41:01;;;;;;;13.40;10.27;;;;;;;;;;5036089;28;20479;-73
2022/11/27 09:43:55;;;;;;;15.33;10.77;;;;;;;;;;5035430;28;21202;-73
2022/11/27 09:46:44;;;;;;;14.33;10.37;;;;;;;;;;5031281;28;20551;-73
2022/11/27 09:49:36;;;;;;;16.20;10.50;;;;;;;;;;5036172;28;20449;-73
2022/11/27 09:52:27;;;;;;;14.23;10.03;;;;;;;;;;5038312;28;20495;-73
2022/11/27 09:55:18;;;;;;;13.40;10.00;;;;;;;;;;5020322;28;20482;-73
2022/11/27 09:58:18;;;;;;;13.50;10.10;;;;;;;;;;5032759;28;20962;-73
2022/11/27 10:01:10;;;;;;;17.73;10.23;;;;;;;;;;5028130;28;20480;-73
2022/11/27 10:04:01;;;;;;;14.93;11.03;;;;;;;;;;5028899;28;20601;-73
2022/11/27 10:07:02;;;;;;;11.67;10.30;;;;;;;;;;5038095;28;20454;-73
2022/11/27 10:09:56;;;;;;;15.77;10.83;;;;;;;;;;5032366;28;20462;-73
2022/11/27 10:12:50;;;;;;;12.97;9.97;;;;;;;;;;5037630;28;21001;-73
2022/11/27 10:15:44;;;;;;;16.03;10.73;;;;;;;;;;5032991;28;20455;-73
2022/11/27 10:18:35;;;;;;;16.70;10.33;;;;;;;;;;5029882;28;20465;-73
2022/11/27 10:21:28;;;;;;;14.13;10.07;;;;;;;;;;5028401;28;20475;-73
2022/11/27 10:24:20;;;;;;;14.33;9.97;;;;;;;;;;5038504;28;20463;-73
2022/11/27 10:27:13;;;;;;;12.50;9.90;;;;;;;;;;5013925;28;20464;-73
2022/11/27 10:30:02;;;;;;;13.77;10.43;;;;;;;;;;5036016;28;20451;-73
2022/11/27 10:32:54;;;;;;;12.10;10.33;;;;;;;;;;5031329;28;20523;-73
2022/11/27 10:35:44;;;;;;;15.17;10.67;;;;;;;;;;5024040;28;20455;-73
2022/11/27 10:38:33;;;;;;;12.17;9.43;;;;;;;;;;5035032;28;20455;-73
2022/11/27 10:41:25;;;;;;;12.37;10.40;;;;;;;;;;5034431;28;20486;-73
2022/11/27 10:44:35;;;;;;;15.97;10.83;;;;;;;;;;5028961;28;20521;-73
2022/11/27 10:47:24;;;;;;;15.27;10.10;;;;;;;;;;5009105;28;21950;-73
2022/11/27 10:50:20;;;;;;;13.07;11.67;;;;;;;;;;5028152;28;20463;-73
2022/11/27 10:53:10;;;;;;;12.23;10.07;;;;;;;;;;5025478;28;20480;-74
2022/11/27 10:56:04;;;;;;;14.10;9.97;;;;;;;;;;5047803;28;20455;-74
2022/11/27 10:58:56;;;;;;;12.23;9.53;;;;;;;;;;5052602;28;20458;-73
2022/11/27 11:01:45;;;;;;;14.90;10.97;;;;;;;;;;5053887;28;20487;-73
2022/11/27 11:04:34;;;;;;;12.80;9.37;;;;;;;;;;5032199;28;20447;-73
2022/11/27 11:07:53;;;;;;;11.80;9.70;;;;;;;;;;5034845;28;20456;-73
2022/11/27 11:10:50;;;;;;;14.70;9.43;;;;;;;;;;5035042;28;20848;-73
2022/11/27 11:13:44;;;;;;;14.47;10.40;;;;;;;;;;5025940;28;20470;-73
2022/11/27 11:16:42;;;;;;;14.50;10.60;;;;;;;;;;5032443;28;20534;-73
2022/11/27 11:19:32;;;;;;;13.30;9.70;;;;;;;;;;5031598;28;20446;-73
2022/11/27 11:22:20;;;;;;;17.03;10.27;;;;;;;;;;5037490;28;20999;-73
2022/11/27 11:25:20;;;;;;;14.43;10.17;;;;;;;;;;5039809;28;20510;-73
2022/11/27 11:28:17;;;;;;;17.23;10.30;;;;;;;;;;5033840;28;20470;-73
2022/11/27 11:31:08;;;;;;;12.77;9.47;;;;;;;;;;5034155;28;20594;-73
2022/11/27 11:33:58;;;;;;;12.97;10.40;;;;;;;;;;5038676;28;20467;-73
2022/11/27 11:36:54;;;;;;;14.00;10.77;;;;;;;;;;5031606;28;20451;-73
2022/11/27 11:39:46;;;;;;;12.30;10.50;;;;;;;;;;5029233;28;20454;-74
2022/11/27 11:42:37;;;;;;;12.73;10.90;;;;;;;;;;5027365;28;20480;-74
2022/11/27 11:45:27;;;;;;;15.67;10.17;;;;;;;;;;5022749;28;21969;-73
2022/11/27 11:48:22;;;;;;;13.57;9.97;;;;;;;;;;5023004;28;20630;-73
2022/11/27 11:51:15;;;;;;;12.47;9.20;;;;;;;;;;5032453;28;20483;-73
2022/11/27 11:54:10;;;;;;;12.53;11.13;;;;;;;;;;5038746;28;20474;-73
2022/11/27 11:57:00;;;;;;;14.03;12.00;;;;;;;;;;5038706;28;20595;-73
2022/11/27 11:59:58;;;;;;;13.47;9.73;;;;;;;;;;5038951;28;20465;-73
2022/11/27 12:03:11;;;;;;;12.80;10.00;;;;;;;;;;5026181;28;20496;-73
2022/11/27 12:06:13;;;;;;;13.47;10.47;;;;;;;;;;5032652;28;21001;-73
2022/11/27 12:09:08;;;;;;;12.60;9.90;;;;;;;;;;5029199;28;21449;-73
2022/11/27 12:12:00;;;;;;;15.40;10.30;;;;;;;;;;5037137;28;20474;-73
2022/11/27 12:14:53;;;;;;;14.37;9.70;;;;;;;;;;5036663;28;20833;-73
2022/11/27 12:17:48;;;;;;;13.60;9.90;;;;;;;;;;5039262;28;20787;-73
2022/11/27 12:20:43;;;;;;;12.67;10.10;;;;;;;;;;5038742;28;21124;-73
2022/11/27 12:23:39;;;;;;;11.30;8.77;;;;;;;;;;5022508;28;20483;-74
2022/11/27 12:26:37;;;;;;;10.87;8.77;;;;;;;;;;5037541;28;20460;-74
2022/11/27 12:29:46;;;;;;;14.03;10.33;;;;;;;;;;5034004;28;20465;-74
2022/11/27 12:32:56;;;;;;;15.50;9.90;;;;;;;;;;5038734;28;20573;-73
2022/11/27 12:35:53;;;;;;;10.93;9.27;;;;;;;;;;5021039;28;20583;-73
2022/11/27 12:38:46;;;;;;;14.43;9.87;;;;;;;;;;5031123;28;20455;-74
2022/11/27 12:41:53;;;;;;;14.47;9.33;;;;;;;;;;5036243;28;20474;-73
2022/11/27 12:44:50;;;;;;;13.43;9.10;;;;;;;;;;5012347;28;20481;-73
2022/11/27 12:47:42;;;;;;;13.00;9.30;;;;;;;;;;5040119;28;20545;-73
2022/11/27 12:50:36;;;;;;;11.87;8.97;;;;;;;;;;5037928;28;20464;-73
2022/11/27 12:53:30;;;;;;;11.57;8.90;;;;;;;;;;5037376;28;20475;-74
2022/11/27 12:56:23;;;;;;;11.77;9.17;;;;;;;;;;5034371;28;20465;-74
2022/11/27 12:59:15;;;;;;;11.13;9.37;;;;;;;;;;5037480;28;20458;-73
2022/11/27 13:02:13;;;;;;;11.37;9.30;;;;;;;;;;5032960;28;20538;-74
2022/11/27 13:05:03;;;;;;;12.13;9.53;;;;;;;;;;5033479;28;20475;-74
2022/11/27 13:07:55;;;;;;;11.53;9.60;;;;;;;;;;5017274;28;20460;-74
2022/11/27 13:10:55;;;;;;;10.83;9.70;;;;;;;;;;5021444;28;20479;-74
2022/11/27 13:13:47;;;;;;;12.90;9.60;;;;;;;;;;5027450;28;20487;-74
2022/11/27 13:16:39;;;;;;;11.30;8.70;;;;;;;;;;5021711;28;20456;-74
2022/11/27 13:19:31;;;;;;;10.47;8.90;;;;;;;;;;5021613;28;20462;-74
2022/11/27 13:22:26;;;;;;;13.10;8.73;;;;;;;;;;5012240;28;20545;-74
2022/11/27 13:25:15;;;;;;;10.00;8.80;;;;;;;;;;5029321;28;20494;-74
2022/11/27 13:28:06;;;;;;;10.03;8.60;;;;;;;;;;5019872;28;20466;-75
2022/11/27 13:30:55;;;;;;;10.63;8.80;;;;;;;;;;5018965;28;20496;-75
2022/11/27 13:33:47;;;;;;;10.03;8.30;;;;;;;;;;5024133;28;20483;-75
2022/11/27 13:36:43;;;;;;;9.70;8.60;;;;;;;;;;5021315;28;20459;-73
2022/11/27 13:39:34;;;;;;;9.77;8.77;;;;;;;;;;5017016;28;21137;-73
2022/11/27 13:42:25;;;;;;;11.37;10.20;;;;;;;;;;5032692;28;20471;-74
2022/11/27 13:45:21;;;;;;;13.13;8.90;;;;;;;;;;5024611;28;20463;-73
2022/11/27 13:48:24;;;;;;;11.40;8.87;;;;;;;;;;5024098;28;20518;-74
2022/11/27 13:51:22;;;;;;;12.53;8.50;;;;;;;;;;5034400;28;20474;-74
2022/11/27 13:54:12;;;;;;;11.77;9.07;;;;;;;;;;5023422;28;20483;-75
2022/11/27 13:57:13;;;;;;;10.37;8.50;;;;;;;;;;5033883;28;20459;-74
2022/11/27 14:00:02;;;;;;;12.97;8.60;;;;;;;;;;5030308;28;20448;-74
2022/11/27 14:02:52;;;;;;;9.80;8.00;;;;;;;;;;5023181;28;20483;-73
2022/11/27 14:05:43;;;;;;;9.90;8.80;;;;;;;;;;5010262;28;20515;-74
2022/11/27 14:08:34;;;;;;;11.60;9.10;;;;;;;;;;5035822;28;20451;-74
2022/11/27 14:11:31;;;;;;;10.07;8.60;;;;;;;;;;5044897;28;20523;-75
2022/11/27 14:14:20;;;;;;;11.87;9.43;;;;;;;;;;5043309;28;20447;-74
2022/11/27 14:17:24;;;;;;;14.57;9.43;;;;;;;;;;5043009;28;20472;-74
2022/11/27 14:20:22;;;;;;;9.87;8.77;;;;;;;;;;5024504;28;20469;-74
2022/11/27 14:23:13;;;;;;;17.00;9.10;;;;;;;;;;5029064;28;20476;-77
2022/11/27 14:26:03;;;;;;;10.73;8.47;;;;;;;;;;5024814;28;20459;-77
2022/11/27 14:28:52;;;;;;;11.23;8.67;;;;;;;;;;5029532;28;20470;-77
2022/11/27 14:31:41;;;;;;;13.17;10.43;;;;;;;;;;5031696;28;20493;-77
2022/11/27 14:34:30;;;;;;;10.70;9.27;;;;;;;;;;5031777;28;21056;-74
2022/11/27 14:37:25;;;;;;;10.07;8.80;;;;;;;;;;5036241;28;21148;-75
2022/11/27 14:40:14;;;;;;;12.63;8.93;;;;;;;;;;5043245;28;20467;-74
2022/11/27 14:43:09;;;;;;;12.13;9.00;;;;;;;;;;5037845;28;21002;-76
2022/11/27 14:46:01;;;;;;;11.67;8.80;;;;;;;;;;5038371;28;20819;-75
2022/11/27 14:48:54;;;;;;;11.47;8.87;;;;;;;;;;5029176;28;20797;-75
2022/11/27 14:51:45;;;;;;;10.03;8.60;;;;;;;;;;5031663;28;20570;-74
2022/11/27 14:54:38;;;;;;;10.60;9.33;;;;;;;;;;5033055;28;20455;-74
2022/11/27 14:57:29;;;;;;;9.33;8.23;;;;;;;;;;5042093;28;20511;-75
2022/11/27 15:00:20;;;;;;;9.20;8.30;;;;;;;;;;5046098;28;20451;-74
2022/11/27 15:03:09;;;;;;;9.17;8.23;;;;;;;;;;5041463;28;20474;-75
2022/11/27 15:06:00;;;;;;;9.97;8.30;;;;;;;;;;5049463;28;20584;-74
2022/11/27 15:08:49;;;;;;;9.87;8.63;;;;;;;;;;5051652;28;20463;-74
2022/11/27 15:12:01;;;;;;;12.03;8.67;;;;;;;;;;5046315;28;24537;-76
2022/11/27 15:14:52;;;;;;;11.03;8.60;;;;;;;;;;5041483;28;20556;-75
2022/11/27 15:17:44;;;;;;;11.10;8.87;;;;;;;;;;5052937;28;20452;-76
2022/11/27 15:20:36;;;;;;;10.43;9.00;;;;;;;;;;5040774;28;20992;-75
2022/11/27 15:23:28;;;;;;;10.53;9.03;;;;;;;;;;5037740;28;20479;-75
2022/11/27 15:26:28;;;;;;;12.67;9.20;;;;;;;;;;5043425;28;20462;-73
2022/11/27 15:29:31;;;;;;;11.23;8.87;;;;;;;;;;5050750;28;20522;-72
2022/11/27 15:32:20;;;;;;;9.40;8.40;;;;;;;;;;5041081;28;20487;-76
2022/11/27 15:35:14;;;;;;;9.50;8.60;;;;;;;;;;5056094;28;20457;-74
2022/11/27 15:38:11;;;;;;;11.67;9.50;;;;;;;;;;5036124;28;20436;-75
2022/11/27 15:41:00;;;;;;;10.67;8.80;;;;;;;;;;5040992;28;20476;-76
2022/11/27 15:43:49;;;;;;;12.73;9.20;;;;;;;;;;5042775;28;22392;-75
2022/11/27 15:46:42;;;;;;;12.70;9.40;;;;;;;;;;5020814;28;20448;-76
2022/11/27 15:49:33;;;;;;;11.17;8.80;;;;;;;;;;5032824;28;20451;-76
2022/11/27 15:52:22;;;;;;;11.07;8.83;;;;;;;;;;5030050;28;20479;-77
2022/11/27 15:55:14;;;;;;;11.20;9.30;;;;;;;;;;5036494;28;20458;-74
2022/11/27 15:58:03;;;;;;;11.50;9.73;;;;;;;;;;5037154;28;20451;-75
2022/11/27 16:00:53;;;;;;;10.13;9.10;;;;;;;;;;5027836;28;20611;-75
2022/11/27 16:03:43;;;;;;;11.27;9.20;;;;;;;;;;5034170;28;20630;-75
2022/11/27 16:06:32;;;;;;;11.67;10.40;;;;;;;;;;5034130;28;21071;-75
2022/11/27 16:09:21;;;;;;;13.97;10.93;;;;;;;;;;5026236;28;20459;-74
2022/11/27 16:12:09;;;;;;;11.90;9.50;;;;;;;;;;5024728;28;20479;-72
2022/11/27 16:14:58;;;;;;;12.20;9.37;;;;;;;;;;5031926;28;20576;-77
2022/11/27 16:17:47;;;;;;;9.87;8.87;;;;;;;;;;5032394;28;20549;-72
2022/11/27 16:20:37;;;;;;;10.93;8.67;;;;;;;;;;5018962;28;20540;-75
2022/11/27 16:23:25;;;;;;;12.60;10.67;;;;;;;;;;5033105;28;20472;-76
2022/11/27 16:26:15;;;;;;;12.57;9.47;;;;;;;;;;5035410;28;20462;-78
2022/11/27 16:29:03;;;;;;;9.90;8.27;;;;;;;;;;5030391;28;20455;-79
2022/11/27 16:31:55;;;;;;;11.90;8.93;;;;;;;;;;5028397;28;20483;-74
2022/11/27 16:34:50;;;;;;;11.87;8.60;;;;;;;;;;5025077;28;20478;-74
2022/11/27 16:37:41;;;;;;;11.93;9.20;;;;;;;;;;5029304;28;20459;-78
2022/11/27 16:40:33;;;;;;;10.73;8.93;;;;;;;;;;5029057;28;20472;-75
2022/11/27 16:43:22;;;;;;;10.17;9.07;;;;;;;;;;5021265;28;20513;-77
2022/11/27 16:46:12;;;;;;;12.87;10.00;;;;;;;;;;5023506;28;20462;-72
2022/11/27 16:49:02;;;;;;;11.80;10.33;;;;;;;;;;5024979;28;20725;-71